• location
  • image
mod_vvisit_countermod_vvisit_countermod_vvisit_countermod_vvisit_countermod_vvisit_countermod_vvisit_countermod_vvisit_counter
mod_vvisit_counterToday177
mod_vvisit_counterYesterday830
mod_vvisit_counterThis week1007
mod_vvisit_counterLast week4472
mod_vvisit_counterThis month6835
mod_vvisit_counterLast month17680
mod_vvisit_counterAll days1032747

We have: 13 guests, 1 bots online
Your IP: 3.80.177.176
 , 
Today: Dec 11, 2018
Airport / Information for passengers / Passenger terminal

Passenger terminal

 

The address of the passenger terminal:

Siauliai International Airport

Lakunu str. 4, LT-77103 Siauliai, Lithuania

 

The services provided:

 

- Customs services

- State Border Guard services

- Aviation security services

- Cafe

 

atvykimas atvykimas2 isvykimas isvykimas2

 

kavine kavine1 kavine2 terminalas terminalas2

Today

Tuesday, 11 December 2018

Aviation Weather Forecast

[source: ADDS]
METAR
EYSA 110720Z VRB02KT 0650 0600S R32R/0650N FZFG VV002 M02/M02 Q1008 R32R/29//95 RED NOSIG =
TAF EYSA 110506Z 1106/1115 VRB05KT 0600 FZFG VV002 TEMPO 1106/1109 1500 BR PROB40 TEMPO 1106/1109 -FZDZ BECMG 1109/1110 5000 BR BKN005
TAF
TAF EYSA 110506Z 1106/1115 VRB05KT 0600 FZFG VV002 TEMPO 1106/1109 1500 BR PROB40 TEMPO 1106/1109 -FZDZ BECMG 1109/1110 5000 BR BKN005 =
SR / SS: 06:42 / 13:59 UTC (EYSA 2018-12-11)

Search

Who's Online

We have 14 guests online

tic logo en